sensor_id;sensor_type;location;lat;lon;timestamp;pressure;altitude;pressure_sealevel;temperature;humidity
12781;BME280;6454;43.304;24.344;2022-07-23T00:00:19;100245.78;;;23.97;52.13
12781;BME280;6454;43.304;24.344;2022-07-23T00:02:46;100248.03;;;23.88;52.34
12781;BME280;6454;43.304;24.344;2022-07-23T00:05:13;100243.63;;;23.83;52.63
12781;BME280;6454;43.304;24.344;2022-07-23T00:07:40;100248.69;;;23.78;52.69
12781;BME280;6454;43.304;24.344;2022-07-23T00:10:08;100245.50;;;23.76;52.41
12781;BME280;6454;43.304;24.344;2022-07-23T00:12:38;100244.56;;;23.68;52.29
12781;BME280;6454;43.304;24.344;2022-07-23T00:15:06;100250.53;;;23.70;52.26
12781;BME280;6454;43.304;24.344;2022-07-23T00:17:33;100252.13;;;23.71;52.18
12781;BME280;6454;43.304;24.344;2022-07-23T00:20:00;100247.44;;;23.75;52.33
12781;BME280;6454;43.304;24.344;2022-07-23T00:22:27;100248.72;;;23.81;52.56
12781;BME280;6454;43.304;24.344;2022-07-23T00:24:55;100233.13;;;23.69;52.29
12781;BME280;6454;43.304;24.344;2022-07-23T00:27:22;100239.16;;;23.75;52.38
12781;BME280;6454;43.304;24.344;2022-07-23T00:29:51;100235.50;;;23.71;52.12
12781;BME280;6454;43.304;24.344;2022-07-23T00:32:18;100240.63;;;23.69;52.13
12781;BME280;6454;43.304;24.344;2022-07-23T00:34:44;100241.75;;;23.64;52.45
12781;BME280;6454;43.304;24.344;2022-07-23T00:37:11;100236.28;;;23.68;52.22
12781;BME280;6454;43.304;24.344;2022-07-23T00:39:38;100234.22;;;23.65;51.86
12781;BME280;6454;43.304;24.344;2022-07-23T00:42:05;100234.66;;;23.67;51.55
12781;BME280;6454;43.304;24.344;2022-07-23T00:44:32;100239.78;;;23.65;51.50
12781;BME280;6454;43.304;24.344;2022-07-23T00:47:00;100225.50;;;23.63;51.74
12781;BME280;6454;43.304;24.344;2022-07-23T00:49:29;100234.16;;;23.61;51.73
12781;BME280;6454;43.304;24.344;2022-07-23T00:51:57;100232.63;;;23.64;51.78
12781;BME280;6454;43.304;24.344;2022-07-23T00:54:25;100233.34;;;23.61;51.79
12781;BME280;6454;43.304;24.344;2022-07-23T00:56:53;100226.25;;;23.60;51.84
12781;BME280;6454;43.304;24.344;2022-07-23T00:59:20;100230.56;;;23.57;51.77
12781;BME280;6454;43.304;24.344;2022-07-23T01:01:47;100233.31;;;23.57;51.68
12781;BME280;6454;43.304;24.344;2022-07-23T01:04:16;100229.84;;;23.64;51.54
12781;BME280;6454;43.304;24.344;2022-07-23T01:06:44;100224.72;;;23.66;51.30
12781;BME280;6454;43.304;24.344;2022-07-23T01:09:12;100229.50;;;23.65;51.48
12781;BME280;6454;43.304;24.344;2022-07-23T01:11:39;100220.28;;;23.58;51.62
12781;BME280;6454;43.304;24.344;2022-07-23T01:14:11;100229.44;;;23.62;51.65
12781;BME280;6454;43.304;24.344;2022-07-23T01:16:39;100228.28;;;23.63;51.53
12781;BME280;6454;43.304;24.344;2022-07-23T01:19:06;100232.63;;;23.64;51.55
12781;BME280;6454;43.304;24.344;2022-07-23T01:21:39;100226.97;;;23.57;51.66
12781;BME280;6454;43.304;24.344;2022-07-23T01:24:09;100230.88;;;23.52;51.88
12781;BME280;6454;43.304;24.344;2022-07-23T01:26:37;100208.53;;;23.42;51.78
12781;BME280;6454;43.304;24.344;2022-07-23T01:29:04;100225.22;;;23.45;51.98
12781;BME280;6454;43.304;24.344;2022-07-23T01:31:31;100226.38;;;23.44;52.06
12781;BME280;6454;43.304;24.344;2022-07-23T01:33:58;100220.03;;;23.44;51.60
12781;BME280;6454;43.304;24.344;2022-07-23T01:36:25;100217.22;;;23.40;51.69
12781;BME280;6454;43.304;24.344;2022-07-23T01:38:52;100222.06;;;23.47;51.34
12781;BME280;6454;43.304;24.344;2022-07-23T01:41:21;100222.50;;;23.49;51.53
12781;BME280;6454;43.304;24.344;2022-07-23T01:43:48;100217.34;;;23.47;51.66
12781;BME280;6454;43.304;24.344;2022-07-23T01:46:15;100218.13;;;23.48;51.35
12781;BME280;6454;43.304;24.344;2022-07-23T01:48:41;100216.94;;;23.49;51.69
12781;BME280;6454;43.304;24.344;2022-07-23T01:51:08;100205.53;;;23.50;52.44
12781;BME280;6454;43.304;24.344;2022-07-23T01:53:35;100210.94;;;23.43;52.05
12781;BME280;6454;43.304;24.344;2022-07-23T01:56:02;100216.53;;;23.47;52.04
12781;BME280;6454;43.304;24.344;2022-07-23T01:58:31;100225.22;;;23.45;52.02
12781;BME280;6454;43.304;24.344;2022-07-23T02:00:58;100214.50;;;23.44;52.14
12781;BME280;6454;43.304;24.344;2022-07-23T02:03:25;100222.03;;;23.43;52.23
12781;BME280;6454;43.304;24.344;2022-07-23T02:05:52;100215.63;;;23.39;52.08
12781;BME280;6454;43.304;24.344;2022-07-23T02:08:19;100212.09;;;23.42;52.08
12781;BME280;6454;43.304;24.344;2022-07-23T02:10:46;100217.97;;;23.37;52.48
12781;BME280;6454;43.304;24.344;2022-07-23T02:13:14;100219.13;;;23.36;52.07
12781;BME280;6454;43.304;24.344;2022-07-23T02:15:42;100215.47;;;23.32;52.18
12781;BME280;6454;43.304;24.344;2022-07-23T02:18:09;100220.50;;;23.27;52.55
12781;BME280;6454;43.304;24.344;2022-07-23T02:20:36;100218.94;;;23.26;52.75
12781;BME280;6454;43.304;24.344;2022-07-23T02:23:04;100219.66;;;23.23;52.78
12781;BME280;6454;43.304;24.344;2022-07-23T02:25:32;100227.97;;;23.23;52.79
12781;BME280;6454;43.304;24.344;2022-07-23T02:27:59;100224.47;;;23.26;53.08
12781;BME280;6454;43.304;24.344;2022-07-23T02:30:26;100223.59;;;23.22;53.06
12781;BME280;6454;43.304;24.344;2022-07-23T02:32:54;100229.13;;;23.22;53.24
12781;BME280;6454;43.304;24.344;2022-07-23T02:35:21;100225.06;;;23.16;53.55
12781;BME280;6454;43.304;24.344;2022-07-23T02:37:48;100228.44;;;23.05;53.69
12781;BME280;6454;43.304;24.344;2022-07-23T02:40:15;100229.59;;;23.04;53.78
12781;BME280;6454;43.304;24.344;2022-07-23T02:42:42;100229.19;;;23.02;53.56
12781;BME280;6454;43.304;24.344;2022-07-23T02:45:09;100231.53;;;23.00;53.88
12781;BME280;6454;43.304;24.344;2022-07-23T02:47:36;100234.59;;;22.95;54.19
12781;BME280;6454;43.304;24.344;2022-07-23T02:50:06;100234.47;;;22.88;54.70
12781;BME280;6454;43.304;24.344;2022-07-23T02:52:33;100228.94;;;22.88;55.00
12781;BME280;6454;43.304;24.344;2022-07-23T02:55:00;100234.59;;;22.76;55.28
12781;BME280;6454;43.304;24.344;2022-07-23T02:57:27;100239.41;;;22.79;55.33
12781;BME280;6454;43.304;24.344;2022-07-23T02:59:54;100244.00;;;22.72;55.88
12781;BME280;6454;43.304;24.344;2022-07-23T03:02:21;100254.72;;;22.73;55.10
12781;BME280;6454;43.304;24.344;2022-07-23T03:04:48;100255.44;;;22.70;54.98
12781;BME280;6454;43.304;24.344;2022-07-23T03:07:17;100263.31;;;22.68;54.89
12781;BME280;6454;43.304;24.344;2022-07-23T03:09:44;100268.75;;;22.65;54.88
12781;BME280;6454;43.304;24.344;2022-07-23T03:12:11;100272.56;;;22.60;55.24
12781;BME280;6454;43.304;24.344;2022-07-23T03:14:38;100278.09;;;22.60;55.97
12781;BME280;6454;43.304;24.344;2022-07-23T03:17:05;100278.59;;;22.46;56.47
12781;BME280;6454;43.304;24.344;2022-07-23T03:19:32;100275.84;;;22.46;56.68
12781;BME280;6454;43.304;24.344;2022-07-23T03:21:59;100279.25;;;22.40;57.11
12781;BME280;6454;43.304;24.344;2022-07-23T03:24:27;100288.53;;;22.32;57.41
12781;BME280;6454;43.304;24.344;2022-07-23T03:27:15;100282.59;;;22.30;57.76
12781;BME280;6454;43.304;24.344;2022-07-23T03:29:42;100287.88;;;22.19;58.53
12781;BME280;6454;43.304;24.344;2022-07-23T03:32:09;100290.72;;;22.23;58.12
12781;BME280;6454;43.304;24.344;2022-07-23T03:34:36;100296.16;;;22.19;58.09
12781;BME280;6454;43.304;24.344;2022-07-23T03:37:03;100290.72;;;22.23;57.83
12781;BME280;6454;43.304;24.344;2022-07-23T03:39:32;100296.25;;;22.23;57.66
12781;BME280;6454;43.304;24.344;2022-07-23T03:41:59;100301.06;;;22.26;57.73
12781;BME280;6454;43.304;24.344;2022-07-23T03:44:26;100298.31;;;22.26;58.09
12781;BME280;6454;43.304;24.344;2022-07-23T03:46:52;100297.50;;;22.25;58.34
12781;BME280;6454;43.304;24.344;2022-07-23T03:49:20;100297.06;;;22.23;58.79
12781;BME280;6454;43.304;24.344;2022-07-23T03:51:46;100291.69;;;22.30;58.69
12781;BME280;6454;43.304;24.344;2022-07-23T03:54:13;100295.69;;;22.33;58.92
12781;BME280;6454;43.304;24.344;2022-07-23T03:56:42;100295.69;;;22.33;59.17
12781;BME280;6454;43.304;24.344;2022-07-23T03:59:09;100295.31;;;22.34;60.29
12781;BME280;6454;43.304;24.344;2022-07-23T04:01:36;100291.25;;;22.28;61.15
12781;BME280;6454;43.304;24.344;2022-07-23T04:04:03;100287.84;;;22.35;61.17
12781;BME280;6454;43.304;24.344;2022-07-23T04:06:30;100295.31;;;22.34;60.83
12781;BME280;6454;43.304;24.344;2022-07-23T04:08:58;100294.75;;;22.44;61.42
12781;BME280;6454;43.304;24.344;2022-07-23T04:11:25;100299.19;;;22.49;61.61
12781;BME280;6454;43.304;24.344;2022-07-23T04:13:53;100288.59;;;22.51;61.41
12781;BME280;6454;43.304;24.344;2022-07-23T04:16:20;100297.31;;;22.53;61.47
12781;BME280;6454;43.304;24.344;2022-07-23T04:18:47;100287.13;;;22.57;60.92
12781;BME280;6454;43.304;24.344;2022-07-23T04:21:14;100285.97;;;22.58;60.12
12781;BME280;6454;43.304;24.344;2022-07-23T04:23:41;100296.63;;;22.75;60.72
12781;BME280;6454;43.304;24.344;2022-07-23T04:26:08;100296.47;;;22.87;60.31
12781;BME280;6454;43.304;24.344;2022-07-23T04:28:34;100298.66;;;22.97;59.88
12781;BME280;6454;43.304;24.344;2022-07-23T04:31:03;100303.94;;;23.06;59.61
12781;BME280;6454;43.304;24.344;2022-07-23T04:33:30;100303.34;;;23.16;59.35
12781;BME280;6454;43.304;24.344;2022-07-23T04:35:57;100305.97;;;23.28;59.45
12781;BME280;6454;43.304;24.344;2022-07-23T04:38:24;100301.09;;;23.41;58.92
12781;BME280;6454;43.304;24.344;2022-07-23T04:40:51;100307.09;;;23.46;58.78
12781;BME280;6454;43.304;24.344;2022-07-23T04:43:18;100311.66;;;23.58;58.88
12781;BME280;6454;43.304;24.344;2022-07-23T04:45:45;100309.44;;;23.67;58.67
12781;BME280;6454;43.304;24.344;2022-07-23T04:48:14;100309.97;;;23.76;58.16
12781;BME280;6454;43.304;24.344;2022-07-23T04:50:41;100308.19;;;23.87;57.70
12781;BME280;6454;43.304;24.344;2022-07-23T04:53:08;100307.97;;;23.99;57.28
12781;BME280;6454;43.304;24.344;2022-07-23T04:55:35;100309.22;;;24.02;57.16
12781;BME280;6454;43.304;24.344;2022-07-23T04:58:02;100303.88;;;24.12;56.79
12781;BME280;6454;43.304;24.344;2022-07-23T05:00:29;100301.28;;;24.26;56.25
12781;BME280;6454;43.304;24.344;2022-07-23T05:02:56;100303.47;;;24.40;56.55
12781;BME280;6454;43.304;24.344;2022-07-23T05:05:24;100309.59;;;24.53;55.79
12781;BME280;6454;43.304;24.344;2022-07-23T05:07:51;100305.34;;;24.62;54.96
12781;BME280;6454;43.304;24.344;2022-07-23T05:10:18;100309.94;;;24.77;54.62
12781;BME280;6454;43.304;24.344;2022-07-23T05:12:45;100310.84;;;24.88;54.09
12781;BME280;6454;43.304;24.344;2022-07-23T05:15:12;100300.69;;;25.00;53.92
12781;BME280;6454;43.304;24.344;2022-07-23T05:17:39;100299.59;;;25.11;53.53
12781;BME280;6454;43.304;24.344;2022-07-23T05:20:06;100305.75;;;25.27;53.28
12781;BME280;6454;43.304;24.344;2022-07-23T05:22:34;100292.00;;;25.41;52.49
12781;BME280;6454;43.304;24.344;2022-07-23T05:25:01;100304.81;;;25.49;52.08
12781;BME280;6454;43.304;24.344;2022-07-23T05:27:30;100298.94;;;25.62;51.43
12781;BME280;6454;43.304;24.344;2022-07-23T05:29:58;100301.06;;;25.75;51.76
12781;BME280;6454;43.304;24.344;2022-07-23T05:32:25;100303.13;;;25.89;51.95
12781;BME280;6454;43.304;24.344;2022-07-23T05:34:52;100307.63;;;26.04;51.46
12781;BME280;6454;43.304;24.344;2022-07-23T05:37:19;100305.34;;;26.16;50.96
12781;BME280;6454;43.304;24.344;2022-07-23T05:39:47;100309.03;;;26.31;50.64
12781;BME280;6454;43.304;24.344;2022-07-23T05:42:14;100306.31;;;26.42;50.45
12781;BME280;6454;43.304;24.344;2022-07-23T05:44:41;100303.22;;;26.57;50.49
12781;BME280;6454;43.304;24.344;2022-07-23T05:47:07;100305.66;;;26.69;49.85
12781;BME280;6454;43.304;24.344;2022-07-23T05:49:36;100304.56;;;26.84;49.16
12781;BME280;6454;43.304;24.344;2022-07-23T05:52:04;100306.56;;;26.98;49.13
12781;BME280;6454;43.304;24.344;2022-07-23T05:54:34;100304.25;;;27.14;49.17
12781;BME280;6454;43.304;24.344;2022-07-23T05:57:02;100304.66;;;27.30;49.06
12781;BME280;6454;43.304;24.344;2022-07-23T05:59:29;100305.50;;;27.45;48.56
12781;BME280;6454;43.304;24.344;2022-07-23T06:01:56;100308.34;;;27.59;48.30
12781;BME280;6454;43.304;24.344;2022-07-23T06:04:23;100313.09;;;27.80;48.61
12781;BME280;6454;43.304;24.344;2022-07-23T06:06:50;100313.09;;;27.97;47.76
12781;BME280;6454;43.304;24.344;2022-07-23T06:09:17;100312.31;;;28.15;46.57
12781;BME280;6454;43.304;24.344;2022-07-23T06:11:44;100313.09;;;28.29;46.13
12781;BME280;6454;43.304;24.344;2022-07-23T06:14:12;100309.44;;;28.50;44.70
12781;BME280;6454;43.304;24.344;2022-07-23T06:16:39;100309.03;;;28.65;43.63
12781;BME280;6454;43.304;24.344;2022-07-23T06:19:06;100308.94;;;28.80;42.98
12781;BME280;6454;43.304;24.344;2022-07-23T06:21:32;100314.50;;;28.94;43.41
12781;BME280;6454;43.304;24.344;2022-07-23T06:23:59;100302.44;;;29.11;42.54
12781;BME280;6454;43.304;24.344;2022-07-23T06:26:26;100304.78;;;29.23;42.55
12781;BME280;6454;43.304;24.344;2022-07-23T06:28:53;100306.28;;;29.38;42.12
12781;BME280;6454;43.304;24.344;2022-07-23T06:31:21;100291.84;;;29.47;41.67
12781;BME280;6454;43.304;24.344;2022-07-23T06:33:48;100294.84;;;29.70;41.21
12781;BME280;6454;43.304;24.344;2022-07-23T06:36:15;100299.97;;;29.82;40.41
12781;BME280;6454;43.304;24.344;2022-07-23T06:38:42;100293.88;;;29.94;39.96
12781;BME280;6454;43.304;24.344;2022-07-23T06:41:09;100302.16;;;30.05;40.29
12781;BME280;6454;43.304;24.344;2022-07-23T06:43:36;100298.88;;;30.13;41.07
12781;BME280;6454;43.304;24.344;2022-07-23T06:46:03;100293.13;;;30.27;38.47
12781;BME280;6454;43.304;24.344;2022-07-23T06:48:31;100296.56;;;30.45;39.98
12781;BME280;6454;43.304;24.344;2022-07-23T06:50:59;100296.44;;;30.56;39.55
12781;BME280;6454;43.304;24.344;2022-07-23T06:53:26;100296.31;;;30.67;38.93
12781;BME280;6454;43.304;24.344;2022-07-23T06:55:53;100285.34;;;30.79;38.77
12781;BME280;6454;43.304;24.344;2022-07-23T06:58:20;100286.00;;;30.94;38.50
12781;BME280;6454;43.304;24.344;2022-07-23T07:00:47;100286.25;;;31.03;37.64
12781;BME280;6454;43.304;24.344;2022-07-23T07:03:14;100284.16;;;31.10;37.70
12781;BME280;6454;43.304;24.344;2022-07-23T07:05:44;100283.63;;;31.19;37.41
12781;BME280;6454;43.304;24.344;2022-07-23T07:08:11;100284.63;;;31.32;36.58
12781;BME280;6454;43.304;24.344;2022-07-23T07:10:38;100285.31;;;31.40;35.61
12781;BME280;6454;43.304;24.344;2022-07-23T07:13:05;100284.03;;;31.48;35.72
12781;BME280;6454;43.304;24.344;2022-07-23T07:15:31;100279.09;;;31.55;34.81
12781;BME280;6454;43.304;24.344;2022-07-23T07:17:58;100278.84;;;31.69;36.25
12781;BME280;6454;43.304;24.344;2022-07-23T07:20:25;100280.19;;;31.84;35.58
12781;BME280;6454;43.304;24.344;2022-07-23T07:22:53;100276.84;;;31.93;34.88
12781;BME280;6454;43.304;24.344;2022-07-23T07:25:20;100273.09;;;32.03;34.72
12781;BME280;6454;43.304;24.344;2022-07-23T07:27:47;100274.47;;;32.15;33.92
12781;BME280;6454;43.304;24.344;2022-07-23T07:30:14;100265.50;;;32.23;33.96
12781;BME280;6454;43.304;24.344;2022-07-23T07:32:41;100274.84;;;32.36;33.70
12781;BME280;6454;43.304;24.344;2022-07-23T07:35:09;100283.06;;;32.47;33.15
12781;BME280;6454;43.304;24.344;2022-07-23T07:37:36;100269.25;;;32.56;32.53
12781;BME280;6454;43.304;24.344;2022-07-23T07:40:05;100270.69;;;32.64;32.42
12781;BME280;6454;43.304;24.344;2022-07-23T07:42:32;100270.47;;;32.75;32.48
12781;BME280;6454;43.304;24.344;2022-07-23T07:44:59;100266.94;;;32.90;32.69
12781;BME280;6454;43.304;24.344;2022-07-23T07:47:26;100266.75;;;32.97;31.13
12781;BME280;6454;43.304;24.344;2022-07-23T07:49:53;100272.59;;;33.06;30.93
12781;BME280;6454;43.304;24.344;2022-07-23T07:52:20;100261.91;;;33.18;29.99
12781;BME280;6454;43.304;24.344;2022-07-23T07:54:47;100260.59;;;33.22;31.04
12781;BME280;6454;43.304;24.344;2022-07-23T07:57:15;100263.22;;;33.29;30.02
12781;BME280;6454;43.304;24.344;2022-07-23T07:59:42;100263.84;;;33.37;29.30
12781;BME280;6454;43.304;24.344;2022-07-23T08:02:09;100258.84;;;33.44;28.73
12781;BME280;6454;43.304;24.344;2022-07-23T08:04:35;100265.41;;;33.57;28.94
12781;BME280;6454;43.304;24.344;2022-07-23T08:07:02;100271.19;;;33.66;28.70
12781;BME280;6454;43.304;24.344;2022-07-23T08:09:29;100262.28;;;33.84;28.89
12781;BME280;6454;43.304;24.344;2022-07-23T08:11:56;100266.84;;;33.94;27.46
12781;BME280;6454;43.304;24.344;2022-07-23T08:14:24;100252.06;;;34.06;27.75
12781;BME280;6454;43.304;24.344;2022-07-23T08:16:51;100258.63;;;34.16;27.23
12781;BME280;6454;43.304;24.344;2022-07-23T08:19:18;100261.09;;;34.30;27.68
12781;BME280;6454;43.304;24.344;2022-07-23T08:21:45;100257.19;;;34.40;27.04
12781;BME280;6454;43.304;24.344;2022-07-23T08:24:12;100250.78;;;34.52;26.45
12781;BME280;6454;43.304;24.344;2022-07-23T08:26:39;100246.66;;;34.57;26.47
12781;BME280;6454;43.304;24.344;2022-07-23T08:29:06;100246.22;;;34.71;27.86
12781;BME280;6454;43.304;24.344;2022-07-23T08:31:34;100252.66;;;34.84;26.86
12781;BME280;6454;43.304;24.344;2022-07-23T08:34:01;100248.72;;;34.94;26.00
12781;BME280;6454;43.304;24.344;2022-07-23T08:36:29;100245.94;;;35.07;25.84
12781;BME280;6454;43.304;24.344;2022-07-23T08:38:57;100245.94;;;35.19;25.99
12781;BME280;6454;43.304;24.344;2022-07-23T08:41:24;100238.38;;;35.29;26.44
12781;BME280;6454;43.304;24.344;2022-07-23T08:43:51;100242.09;;;35.38;25.77
12781;BME280;6454;43.304;24.344;2022-07-23T08:46:19;100238.13;;;35.48;26.26
12781;BME280;6454;43.304;24.344;2022-07-23T08:48:49;100240.75;;;35.55;25.56
12781;BME280;6454;43.304;24.344;2022-07-23T08:51:17;100242.41;;;35.66;25.12
12781;BME280;6454;43.304;24.344;2022-07-23T08:53:44;100235.75;;;35.72;25.82
12781;BME280;6454;43.304;24.344;2022-07-23T08:56:12;100232.09;;;35.84;25.21
12781;BME280;6454;43.304;24.344;2022-07-23T08:58:39;100248.19;;;35.96;24.38
12781;BME280;6454;43.304;24.344;2022-07-23T09:01:05;100240.19;;;36.07;25.14
12781;BME280;6454;43.304;24.344;2022-07-23T09:03:34;100200.56;;;35.86;24.58
12781;BME280;6454;43.304;24.344;2022-07-23T09:06:03;100238.97;;;36.17;25.91
12781;BME280;6454;43.304;24.344;2022-07-23T09:08:35;100242.69;;;36.27;24.24
12781;BME280;6454;43.304;24.344;2022-07-23T09:11:03;100245.56;;;36.36;24.31
12781;BME280;6454;43.304;24.344;2022-07-23T09:13:33;100249.16;;;36.49;23.96
12781;BME280;6454;43.304;24.344;2022-07-23T09:16:04;100244.19;;;36.62;23.55
12781;BME280;6454;43.304;24.344;2022-07-23T09:18:37;100244.25;;;36.71;23.11
12781;BME280;6454;43.304;24.344;2022-07-23T09:21:15;100232.66;;;36.78;23.18
12781;BME280;6454;43.304;24.344;2022-07-23T09:23:43;100244.03;;;36.88;23.60
12781;BME280;6454;43.304;24.344;2022-07-23T09:26:32;100231.69;;;36.72;22.60
12781;BME280;6454;43.304;24.344;2022-07-23T09:29:05;100226.97;;;36.69;23.18
12781;BME280;6454;43.304;24.344;2022-07-23T09:31:47;100205.38;;;36.32;22.03
12781;BME280;6454;43.304;24.344;2022-07-23T09:34:18;100229.88;;;36.57;22.90
12781;BME280;6454;43.304;24.344;2022-07-23T09:36:48;100233.94;;;36.56;23.21
12781;BME280;6454;43.304;24.344;2022-07-23T09:39:16;100233.25;;;36.64;23.48
12781;BME280;6454;43.304;24.344;2022-07-23T09:41:48;100231.25;;;36.74;24.09
12781;BME280;6454;43.304;24.344;2022-07-23T09:44:17;100230.84;;;36.85;23.12
12781;BME280;6454;43.304;24.344;2022-07-23T09:46:45;100231.44;;;36.79;23.70
12781;BME280;6454;43.304;24.344;2022-07-23T09:49:15;100222.59;;;36.77;23.52
12781;BME280;6454;43.304;24.344;2022-07-23T09:51:48;100219.63;;;36.50;23.13
12781;BME280;6454;43.304;24.344;2022-07-23T09:54:31;100211.53;;;36.40;23.64
12781;BME280;6454;43.304;24.344;2022-07-23T09:57:03;100223.44;;;36.56;23.75
12781;BME280;6454;43.304;24.344;2022-07-23T09:59:32;100219.75;;;36.68;24.36
12781;BME280;6454;43.304;24.344;2022-07-23T10:02:00;100213.88;;;36.85;24.33
12781;BME280;6454;43.304;24.344;2022-07-23T10:04:29;100208.59;;;36.96;24.30
12781;BME280;6454;43.304;24.344;2022-07-23T10:06:59;100207.75;;;36.86;22.97
12781;BME280;6454;43.304;24.344;2022-07-23T10:09:28;100192.34;;;36.87;23.03
12781;BME280;6454;43.304;24.344;2022-07-23T10:11:57;100210.00;;;37.00;22.57
12781;BME280;6454;43.304;24.344;2022-07-23T10:14:32;100204.53;;;36.97;22.32
12781;BME280;6454;43.304;24.344;2022-07-23T10:17:01;100214.38;;;36.92;22.28
12781;BME280;6454;43.304;24.344;2022-07-23T10:19:28;100206.81;;;36.89;21.62
12781;BME280;6454;43.304;24.344;2022-07-23T10:21:59;100205.09;;;36.92;22.87
12781;BME280;6454;43.304;24.344;2022-07-23T10:24:40;100195.13;;;37.00;22.19
12781;BME280;6454;43.304;24.344;2022-07-23T10:27:30;100191.69;;;37.14;22.14
12781;BME280;6454;43.304;24.344;2022-07-23T10:30:02;100191.69;;;37.14;22.17
12781;BME280;6454;43.304;24.344;2022-07-23T10:32:37;100183.53;;;37.25;21.74
12781;BME280;6454;43.304;24.344;2022-07-23T10:35:12;100181.38;;;37.29;21.92
12781;BME280;6454;43.304;24.344;2022-07-23T10:37:48;100183.53;;;37.25;21.70
12781;BME280;6454;43.304;24.344;2022-07-23T10:40:17;100180.06;;;37.21;21.57
12781;BME280;6454;43.304;24.344;2022-07-23T10:42:45;100182.00;;;37.33;21.83
12781;BME280;6454;43.304;24.344;2022-07-23T10:45:27;100175.47;;;37.54;21.90
12781;BME280;6454;43.304;24.344;2022-07-23T10:47:55;100177.81;;;37.56;22.47
12781;BME280;6454;43.304;24.344;2022-07-23T10:50:37;100173.09;;;37.43;21.39
12781;BME280;6454;43.304;24.344;2022-07-23T10:53:16;100163.97;;;37.39;20.85
12781;BME280;6454;43.304;24.344;2022-07-23T10:55:46;100163.97;;;37.58;20.85
12781;BME280;6454;43.304;24.344;2022-07-23T10:58:19;100166.81;;;37.49;20.42
12781;BME280;6454;43.304;24.344;2022-07-23T11:00:47;100155.66;;;37.54;20.87
12781;BME280;6454;43.304;24.344;2022-07-23T11:03:31;100147.78;;;37.58;20.17
12781;BME280;6454;43.304;24.344;2022-07-23T11:06:02;100148.72;;;37.55;19.51
12781;BME280;6454;43.304;24.344;2022-07-23T11:08:31;100143.56;;;37.72;21.33
12781;BME280;6454;43.304;24.344;2022-07-23T11:11:10;100149.66;;;37.70;20.20
12781;BME280;6454;43.304;24.344;2022-07-23T11:16:26;100140.25;;;37.64;20.41
12781;BME280;6454;43.304;24.344;2022-07-23T11:19:07;100137.25;;;37.59;19.96
12781;BME280;6454;43.304;24.344;2022-07-23T11:21:48;100135.81;;;37.72;20.16
12781;BME280;6454;43.304;24.344;2022-07-23T11:24:22;100130.00;;;37.76;19.81
12781;BME280;6454;43.304;24.344;2022-07-23T11:27:00;100123.59;;;37.84;20.18
12781;BME280;6454;43.304;24.344;2022-07-23T11:29:52;100132.38;;;37.95;20.04
12781;BME280;6454;43.304;24.344;2022-07-23T11:32:31;100120.59;;;37.88;20.03
12781;BME280;6454;43.304;24.344;2022-07-23T11:35:01;100123.88;;;37.59;19.71
12781;BME280;6454;43.304;24.344;2022-07-23T11:37:36;100130.63;;;37.53;20.54
12781;BME280;6454;43.304;24.344;2022-07-23T11:40:09;100124.19;;;37.61;20.17
12781;BME280;6454;43.304;24.344;2022-07-23T11:42:37;100127.66;;;37.65;20.09
12781;BME280;6454;43.304;24.344;2022-07-23T11:45:06;100112.41;;;37.90;20.68
12781;BME280;6454;43.304;24.344;2022-07-23T11:47:34;100117.13;;;37.93;19.42
12781;BME280;6454;43.304;24.344;2022-07-23T11:50:04;100120.09;;;37.98;19.48
12781;BME280;6454;43.304;24.344;2022-07-23T11:52:32;100119.94;;;38.02;19.61
12781;BME280;6454;43.304;24.344;2022-07-23T11:55:01;100120.75;;;37.93;20.38
12781;BME280;6454;43.304;24.344;2022-07-23T11:57:32;100117.44;;;38.04;20.57
12781;BME280;6454;43.304;24.344;2022-07-23T12:00:05;100121.03;;;38.14;19.79
12781;BME280;6454;43.304;24.344;2022-07-23T12:02:33;100113.94;;;38.18;19.86
12781;BME280;6454;43.304;24.344;2022-07-23T12:05:00;100109.34;;;38.21;19.15
12781;BME280;6454;43.304;24.344;2022-07-23T12:07:29;100103.88;;;38.08;19.56
12781;BME280;6454;43.304;24.344;2022-07-23T12:09:58;100103.84;;;38.17;19.53
12781;BME280;6454;43.304;24.344;2022-07-23T12:12:26;100099.25;;;38.29;20.10
12781;BME280;6454;43.304;24.344;2022-07-23T12:14:56;100096.41;;;38.38;20.58
12781;BME280;6454;43.304;24.344;2022-07-23T12:17:28;100097.84;;;38.33;20.34
12781;BME280;6454;43.304;24.344;2022-07-23T12:19:57;100085.66;;;38.51;20.48
12781;BME280;6454;43.304;24.344;2022-07-23T12:22:25;100083.50;;;38.69;20.20
12781;BME280;6454;43.304;24.344;2022-07-23T12:24:57;100089.00;;;38.82;19.50
12781;BME280;6454;43.304;24.344;2022-07-23T12:27:25;100089.66;;;38.77;19.44
12781;BME280;6454;43.304;24.344;2022-07-23T12:29:54;100082.75;;;38.69;19.65
12781;BME280;6454;43.304;24.344;2022-07-23T12:32:23;100078.13;;;38.48;18.57
12781;BME280;6454;43.304;24.344;2022-07-23T12:35:01;100075.56;;;38.50;19.01
12781;BME280;6454;43.304;24.344;2022-07-23T12:37:31;100047.00;;;38.39;19.35
12781;BME280;6454;43.304;24.344;2022-07-23T12:39:58;100066.84;;;38.62;18.61
12781;BME280;6454;43.304;24.344;2022-07-23T12:42:25;100064.94;;;38.68;18.54
12781;BME280;6454;43.304;24.344;2022-07-23T12:45:09;100069.41;;;38.60;18.73
12781;BME280;6454;43.304;24.344;2022-07-23T12:47:58;100062.91;;;38.69;19.72
12781;BME280;6454;43.304;24.344;2022-07-23T12:50:37;100061.97;;;38.63;18.83
12781;BME280;6454;43.304;24.344;2022-07-23T12:53:09;100061.81;;;38.66;19.30
12781;BME280;6454;43.304;24.344;2022-07-23T12:55:38;100060.16;;;38.51;18.25
12781;BME280;6454;43.304;24.344;2022-07-23T12:58:11;100060.41;;;38.62;18.82
12781;BME280;6454;43.304;24.344;2022-07-23T13:00:59;100045.88;;;38.69;18.63